createdAt,value
2023-02-02T00:01:59.992Z,4.95
2023-02-02T00:04:29.003Z,4.90
2023-02-02T00:06:58.750Z,4.50
2023-02-02T00:09:30.042Z,5.15
2023-02-02T00:11:57.077Z,4.45
2023-02-02T00:14:23.986Z,4.75
2023-02-02T00:16:54.752Z,4.70
2023-02-02T00:19:26.212Z,5.10
2023-02-02T00:21:54.007Z,4.53
2023-02-02T00:24:20.886Z,5.72
2023-02-02T00:26:56.191Z,4.70
2023-02-02T00:29:25.461Z,5.78
2023-02-02T00:31:52.254Z,4.32
2023-02-02T00:34:19.166Z,5.30
2023-02-02T00:36:46.323Z,4.80
2023-02-02T00:39:15.952Z,4.93
2023-02-02T00:41:42.509Z,4.88
2023-02-02T00:44:27.344Z,5.18
2023-02-02T00:46:53.764Z,5.78
2023-02-02T00:49:20.265Z,5.18
2023-02-02T00:51:46.708Z,4.70
2023-02-02T00:54:14.338Z,5.20
2023-02-02T00:56:41.415Z,4.82
2023-02-02T00:59:07.972Z,5.20
2023-02-02T01:01:34.694Z,4.75
2023-02-02T01:04:01.574Z,5.40
2023-02-02T01:06:28.441Z,5.18
2023-02-02T01:08:54.950Z,4.45
2023-02-02T01:11:21.554Z,5.28
2023-02-02T01:13:48.044Z,6.00
2023-02-02T01:16:15.787Z,6.05
2023-02-02T01:18:42.472Z,5.32
2023-02-02T01:21:10.767Z,5.25
2023-02-02T01:23:38.168Z,6.22
2023-02-02T01:26:07.968Z,4.68
2023-02-02T01:28:34.791Z,5.13
2023-02-02T01:31:12.382Z,4.65
2023-02-02T01:33:39.462Z,4.57
2023-02-02T01:36:09.721Z,5.10
2023-02-02T01:38:36.695Z,4.80
2023-02-02T01:41:04.598Z,4.70
2023-02-02T01:43:30.936Z,4.40
2023-02-02T01:45:58.628Z,4.78
2023-02-02T01:48:29.471Z,4.60
2023-02-02T01:50:59.956Z,4.70
2023-02-02T01:53:26.427Z,6.35
2023-02-02T01:55:53.135Z,5.55
2023-02-02T01:58:24.782Z,5.97
2023-02-02T02:00:51.876Z,5.68
2023-02-02T02:03:21.650Z,5.55
2023-02-02T02:05:55.201Z,6.60
2023-02-02T02:08:31.981Z,6.50
2023-02-02T02:10:58.405Z,6.05
2023-02-02T02:13:46.363Z,6.18
2023-02-02T02:16:42.235Z,5.63
2023-02-02T02:20:05.130Z,5.25
2023-02-02T02:23:15.961Z,4.90
2023-02-02T02:26:13.129Z,4.95
2023-02-02T02:28:57.163Z,5.93
2023-02-02T02:31:42.513Z,4.63
2023-02-02T02:34:27.021Z,5.80
2023-02-02T02:37:07.630Z,4.97
2023-02-02T02:39:39.406Z,4.88
2023-02-02T02:42:20.035Z,4.70
2023-02-02T02:44:48.379Z,4.43
2023-02-02T02:47:14.910Z,5.07
2023-02-02T02:49:46.168Z,5.65
2023-02-02T02:52:12.942Z,4.95
2023-02-02T02:54:55.775Z,4.97
2023-02-02T02:57:34.169Z,4.78
2023-02-02T03:00:26.849Z,4.97
2023-02-02T03:03:09.229Z,4.70
2023-02-02T03:05:35.603Z,6.03
2023-02-02T03:08:20.403Z,5.88
2023-02-02T03:10:47.402Z,6.10
2023-02-02T03:13:14.836Z,6.18
2023-02-02T03:15:43.001Z,5.68
2023-02-02T03:18:09.627Z,4.45
2023-02-02T03:20:36.355Z,5.53
2023-02-02T03:23:02.821Z,5.70
2023-02-02T03:25:29.257Z,4.30
2023-02-02T03:27:55.680Z,5.00
2023-02-02T03:30:22.363Z,4.85
2023-02-02T03:32:49.629Z,4.97
2023-02-02T03:35:16.057Z,4.82
2023-02-02T03:37:42.424Z,4.05
2023-02-02T03:40:09.641Z,4.53
2023-02-02T03:42:36.049Z,4.47
2023-02-02T03:45:02.549Z,4.20
2023-02-02T03:47:30.822Z,4.47
2023-02-02T03:49:57.320Z,4.50
2023-02-02T03:52:24.017Z,4.18
2023-02-02T03:54:50.503Z,4.95
2023-02-02T03:57:16.912Z,4.60
2023-02-02T03:59:44.636Z,4.40
2023-02-02T04:02:11.054Z,4.47
2023-02-02T04:04:37.468Z,4.85
2023-02-02T04:07:03.884Z,5.10
2023-02-02T04:09:30.344Z,5.10
2023-02-02T04:11:56.821Z,5.45
2023-02-02T04:14:23.220Z,5.13
2023-02-02T04:16:49.797Z,5.70
2023-02-02T04:19:16.997Z,5.50
2023-02-02T04:21:43.574Z,5.45
2023-02-02T04:24:13.982Z,5.85
2023-02-02T04:26:40.933Z,5.70
2023-02-02T04:29:07.744Z,5.68
2023-02-02T04:31:34.257Z,5.60
2023-02-02T04:34:00.988Z,6.57
2023-02-02T04:36:27.462Z,6.20
2023-02-02T04:38:55.292Z,5.82
2023-02-02T04:41:22.515Z,6.07
2023-02-02T04:43:49.079Z,5.90
2023-02-02T04:46:15.656Z,5.22
2023-02-02T04:48:42.279Z,5.43
2023-02-02T04:51:11.344Z,5.28
2023-02-02T04:53:37.854Z,5.40
2023-02-02T04:56:14.684Z,4.40
2023-02-02T04:58:41.415Z,4.80
2023-02-02T05:01:20.710Z,5.80
2023-02-02T05:03:48.006Z,5.18
2023-02-02T05:06:16.047Z,5.15
2023-02-02T05:08:43.297Z,5.30
2023-02-02T05:11:11.176Z,6.22
2023-02-02T05:13:37.685Z,6.22
2023-02-02T05:16:04.376Z,5.55
2023-02-02T05:18:31.774Z,5.88
2023-02-02T05:21:02.504Z,5.63
2023-02-02T05:23:29.185Z,5.70
2023-02-02T05:25:55.944Z,6.15
2023-02-02T05:28:22.870Z,5.60
2023-02-02T05:30:49.674Z,5.55
2023-02-02T05:33:18.304Z,6.30
2023-02-02T05:35:48.638Z,5.40
2023-02-02T05:38:15.776Z,5.90
2023-02-02T05:40:42.402Z,5.30
2023-02-02T05:43:08.843Z,4.82
2023-02-02T05:45:35.323Z,4.75
2023-02-02T05:48:01.795Z,5.25
2023-02-02T05:50:28.217Z,4.38
2023-02-02T05:52:54.669Z,5.40
2023-02-02T05:55:21.327Z,5.63
2023-02-02T05:57:47.746Z,4.95
2023-02-02T06:00:14.507Z,4.32
2023-02-02T06:02:40.920Z,4.40
2023-02-02T06:05:07.754Z,4.78
2023-02-02T06:07:34.171Z,4.10
2023-02-02T06:10:00.608Z,4.65
2023-02-02T06:12:27.005Z,4.43
2023-02-02T06:14:53.400Z,4.80
2023-02-02T06:17:19.855Z,5.25
2023-02-02T06:19:46.266Z,4.72
2023-02-02T06:22:12.687Z,5.78
2023-02-02T06:24:39.154Z,4.82
2023-02-02T06:27:05.572Z,5.10
2023-02-02T06:29:31.961Z,4.90
2023-02-02T06:31:58.564Z,5.18
2023-02-02T06:34:25.113Z,4.93
2023-02-02T06:36:51.565Z,5.65
2023-02-02T06:39:18.096Z,5.60
2023-02-02T06:41:46.522Z,5.13
2023-02-02T06:44:15.230Z,5.18
2023-02-02T06:46:42.436Z,5.70
2023-02-02T06:49:09.084Z,5.10
2023-02-02T06:51:35.620Z,5.53
2023-02-02T06:54:03.824Z,4.82
2023-02-02T06:56:30.403Z,5.25
2023-02-02T06:58:56.835Z,4.65
2023-02-02T07:01:23.311Z,5.28
2023-02-02T07:03:51.040Z,4.90
2023-02-02T07:06:28.588Z,5.25
2023-02-02T07:09:02.553Z,4.80
2023-02-02T07:11:36.554Z,5.20
2023-02-02T07:14:05.589Z,5.32
2023-02-02T07:16:32.069Z,5.32
2023-02-02T07:18:58.503Z,5.10
2023-02-02T07:21:29.279Z,4.20
2023-02-02T07:23:55.770Z,4.97
2023-02-02T07:26:22.321Z,5.57
2023-02-02T07:28:48.770Z,5.43
2023-02-02T07:31:24.170Z,4.45
2023-02-02T07:33:51.190Z,5.07
2023-02-02T07:36:19.875Z,5.40
2023-02-02T07:38:47.842Z,4.32
2023-02-02T07:41:15.215Z,4.03
2023-02-02T07:43:41.851Z,5.22
2023-02-02T07:46:10.124Z,4.70
2023-02-02T07:48:37.082Z,4.80
2023-02-02T07:51:05.567Z,4.85
2023-02-02T07:53:33.043Z,6.10
2023-02-02T07:56:10.360Z,7.13
2023-02-02T07:58:37.201Z,5.63
2023-02-02T08:01:05.359Z,5.65
2023-02-02T08:03:31.891Z,6.38
2023-02-02T08:05:59.409Z,6.03
2023-02-02T08:08:25.876Z,6.05
2023-02-02T08:10:53.881Z,6.35
2023-02-02T08:13:20.943Z,5.68
2023-02-02T08:15:47.430Z,5.57
2023-02-02T08:18:13.874Z,6.10
2023-02-02T08:20:40.303Z,5.80
2023-02-02T08:23:13.402Z,5.40
2023-02-02T08:25:40.062Z,5.50
2023-02-02T08:28:06.488Z,5.28
2023-02-02T08:30:34.891Z,4.70
2023-02-02T08:33:01.321Z,4.40
2023-02-02T08:35:27.775Z,4.78
2023-02-02T08:37:54.211Z,4.72
2023-02-02T08:40:20.660Z,4.78
2023-02-02T08:42:51.041Z,4.22
2023-02-02T08:46:12.663Z,4.47
2023-02-02T08:48:11.581Z,5.40
2023-02-02T08:50:39.001Z,5.53
2023-02-02T08:53:05.456Z,4.70
2023-02-02T08:55:31.883Z,4.70
2023-02-02T08:57:58.273Z,4.38
2023-02-02T09:00:24.750Z,4.53
2023-02-02T09:02:51.622Z,4.50
2023-02-02T09:05:20.771Z,4.32
2023-02-02T09:07:49.132Z,4.22
2023-02-02T09:10:16.131Z,4.60
2023-02-02T09:12:42.531Z,4.60
2023-02-02T09:15:09.309Z,4.50
2023-02-02T09:17:35.694Z,4.60
2023-02-02T09:20:02.328Z,4.78
2023-02-02T09:22:29.054Z,4.97
2023-02-02T09:24:55.566Z,4.65
2023-02-02T09:27:22.034Z,4.72
2023-02-02T09:29:48.817Z,5.32
2023-02-02T09:32:15.293Z,5.13
2023-02-02T09:34:41.676Z,5.18
2023-02-02T09:37:08.193Z,5.35
2023-02-02T09:39:34.613Z,6.35
2023-02-02T09:42:29.350Z,5.20
2023-02-02T09:45:03.896Z,4.78
2023-02-02T09:47:30.252Z,4.97
2023-02-02T09:50:29.715Z,4.93
2023-02-02T09:53:12.899Z,6.10
2023-02-02T09:55:48.608Z,4.95
2023-02-02T09:58:27.878Z,4.93
2023-02-02T10:01:08.589Z,4.40
2023-02-02T10:03:45.692Z,5.18
2023-02-02T10:06:26.705Z,5.50
2023-02-02T10:08:56.236Z,6.28
2023-02-02T10:11:31.067Z,5.72
2023-02-02T10:14:02.525Z,5.70
2023-02-02T10:16:30.285Z,5.05
2023-02-02T10:19:04.559Z,4.60
2023-02-02T10:21:34.026Z,4.57
2023-02-02T10:24:03.107Z,5.07
2023-02-02T10:26:53.828Z,4.97
2023-02-02T10:29:26.237Z,4.40
2023-02-02T10:32:25.190Z,4.75
2023-02-02T10:35:03.454Z,4.43
2023-02-02T10:37:37.907Z,4.00
2023-02-02T10:40:30.440Z,4.25
2023-02-02T10:43:33.515Z,4.13
2023-02-02T10:46:00.373Z,4.40
2023-02-02T10:48:32.674Z,4.18
2023-02-02T10:51:03.280Z,4.65
2023-02-02T10:53:30.438Z,4.75
2023-02-02T10:56:00.799Z,4.05
2023-02-02T10:58:32.040Z,4.05
2023-02-02T11:01:00.099Z,5.03
2023-02-02T11:03:32.090Z,4.70
2023-02-02T11:06:18.727Z,4.28
2023-02-02T11:08:46.487Z,4.35
2023-02-02T11:11:19.290Z,4.30
2023-02-02T11:13:50.068Z,4.00
2023-02-02T11:16:16.489Z,4.88
2023-02-02T11:18:44.236Z,4.03
2023-02-02T11:21:34.113Z,4.07
2023-02-02T11:24:03.098Z,3.70
2023-02-02T11:27:20.787Z,5.28
2023-02-02T11:29:52.505Z,8.82
2023-02-02T11:32:39.283Z,10.85
2023-02-02T11:35:08.432Z,7.70
2023-02-02T11:37:36.802Z,5.18
2023-02-02T11:40:32.653Z,5.15
2023-02-02T11:43:00.991Z,4.45
2023-02-02T11:45:33.499Z,4.70
2023-02-02T11:48:14.127Z,5.07
2023-02-02T11:50:49.274Z,4.20
2023-02-02T11:53:23.346Z,3.83
2023-02-02T11:55:49.870Z,5.85
2023-02-02T11:58:29.990Z,5.25
2023-02-02T12:01:02.246Z,4.13
2023-02-02T12:03:38.095Z,3.92
2023-02-02T12:06:38.178Z,3.92
2023-02-02T12:09:13.496Z,4.20
2023-02-02T12:11:45.886Z,5.15
2023-02-02T12:14:21.838Z,3.95
2023-02-02T12:16:55.850Z,4.65
2023-02-02T12:19:35.534Z,4.70
2023-02-02T12:22:10.461Z,5.03
2023-02-02T12:25:16.116Z,4.30
2023-02-02T12:27:54.449Z,3.75
2023-02-02T12:30:50.210Z,3.75
2023-02-02T12:33:31.075Z,4.20
2023-02-02T12:35:57.416Z,4.65
2023-02-02T12:38:36.076Z,3.40
2023-02-02T12:41:02.370Z,4.63
2023-02-02T12:43:40.662Z,3.92
2023-02-02T12:46:19.560Z,4.28
2023-02-02T12:48:51.222Z,4.47
2023-02-02T12:51:20.656Z,4.30
2023-02-02T12:54:34.669Z,4.50
2023-02-02T12:57:30.820Z,4.18
2023-02-02T13:00:15.966Z,3.75
2023-02-02T13:03:07.052Z,3.92
2023-02-02T13:05:55.598Z,4.93
2023-02-02T13:08:26.669Z,4.75
2023-02-02T13:10:57.250Z,3.92
2023-02-02T13:13:31.359Z,4.82
2023-02-02T13:16:06.151Z,4.30
2023-02-02T13:18:37.108Z,4.32
2023-02-02T13:21:08.258Z,4.43
2023-02-02T13:23:40.894Z,3.63
2023-02-02T13:26:15.201Z,3.85
2023-02-02T13:28:48.368Z,3.72
2023-02-02T13:31:19.906Z,3.67
2023-02-02T13:33:53.214Z,5.30
2023-02-02T13:36:25.904Z,3.53
2023-02-02T13:39:03.700Z,4.07
2023-02-02T13:41:31.373Z,3.42
2023-02-02T13:44:03.761Z,3.40
2023-02-02T13:46:53.481Z,3.50
2023-02-02T13:49:25.559Z,3.42
2023-02-02T13:52:08.574Z,3.65
2023-02-02T13:54:59.886Z,3.70
2023-02-02T13:57:54.273Z,3.38
2023-02-02T14:00:24.328Z,4.03
2023-02-02T14:02:59.953Z,4.18
2023-02-02T14:05:39.205Z,4.57
2023-02-02T14:08:16.343Z,5.15
2023-02-02T14:10:45.326Z,5.50
2023-02-02T14:13:36.632Z,4.50
2023-02-02T14:16:07.847Z,5.35
2023-02-02T14:18:53.636Z,4.78
2023-02-02T14:21:32.363Z,5.22
2023-02-02T14:24:27.565Z,4.90
2023-02-02T14:26:54.710Z,3.97
2023-02-02T14:29:33.526Z,4.00
2023-02-02T14:32:04.577Z,3.75
2023-02-02T14:34:41.673Z,3.42
2023-02-02T14:37:20.575Z,4.32
2023-02-02T14:40:05.389Z,5.10
2023-02-02T14:43:15.309Z,5.28
2023-02-02T14:45:43.231Z,5.03
2023-02-02T14:48:14.169Z,5.57
2023-02-02T14:50:46.746Z,5.07
2023-02-02T14:53:13.150Z,6.90
2023-02-02T14:56:02.966Z,6.80
2023-02-02T14:58:34.019Z,6.53
2023-02-02T15:01:09.490Z,4.85
2023-02-02T15:03:54.206Z,4.30
2023-02-02T15:06:26.813Z,4.82
2023-02-02T15:09:26.571Z,5.40
2023-02-02T15:12:00.786Z,4.70
2023-02-02T15:14:55.482Z,6.30
2023-02-02T15:17:27.907Z,5.38
2023-02-02T15:20:13.180Z,6.70
2023-02-02T15:22:58.350Z,5.07
2023-02-02T15:25:31.079Z,5.97
2023-02-02T15:28:22.466Z,5.07
2023-02-02T15:30:53.076Z,5.20
2023-02-02T15:33:31.819Z,4.95
2023-02-02T15:35:59.854Z,5.47
2023-02-02T15:38:34.000Z,3.58
2023-02-02T15:41:24.772Z,3.88
2023-02-02T15:43:52.434Z,5.13
2023-02-02T15:46:28.263Z,5.03
2023-02-02T15:49:36.017Z,4.90
2023-02-02T15:52:11.670Z,3.90
2023-02-02T15:54:38.217Z,3.95
2023-02-02T15:57:22.274Z,4.50
2023-02-02T15:59:49.386Z,5.80
2023-02-02T16:02:21.091Z,4.95
2023-02-02T16:04:47.574Z,4.25
2023-02-02T16:07:18.897Z,3.97
2023-02-02T16:09:45.429Z,3.97
2023-02-02T16:12:19.917Z,4.32
2023-02-02T16:14:48.295Z,4.60
2023-02-02T16:17:27.893Z,4.75
2023-02-02T16:20:04.058Z,4.20
2023-02-02T16:22:31.181Z,4.20
2023-02-02T16:25:00.727Z,5.60
2023-02-02T16:27:29.364Z,4.05
2023-02-02T16:30:00.707Z,4.18
2023-02-02T16:32:30.047Z,4.50
2023-02-02T16:34:57.293Z,4.35
2023-02-02T16:37:29.498Z,3.78
2023-02-02T16:39:57.341Z,4.32
2023-02-02T16:42:29.028Z,4.35
2023-02-02T16:44:59.875Z,3.85
2023-02-02T16:47:26.238Z,4.30
2023-02-02T16:49:53.419Z,3.90
2023-02-02T16:52:21.635Z,3.38
2023-02-02T16:54:55.520Z,3.55
2023-02-02T16:57:26.389Z,3.95
2023-02-02T16:59:58.494Z,4.03
2023-02-02T17:02:30.637Z,4.07
2023-02-02T17:05:21.418Z,3.78
2023-02-02T17:07:54.760Z,4.10
2023-02-02T17:10:24.779Z,5.30
2023-02-02T17:12:51.213Z,4.20
2023-02-02T17:15:17.531Z,4.28
2023-02-02T17:17:45.224Z,4.65
2023-02-02T17:20:12.786Z,4.60
2023-02-02T17:22:45.269Z,4.35
2023-02-02T17:25:22.435Z,4.30
2023-02-02T17:27:49.042Z,3.85
2023-02-02T17:30:18.964Z,3.70
2023-02-02T17:32:45.507Z,3.58
2023-02-02T17:35:15.756Z,3.40
2023-02-02T17:37:42.175Z,4.40
2023-02-02T17:40:19.099Z,3.55
2023-02-02T17:42:48.357Z,3.88
2023-02-02T17:45:20.145Z,5.28
2023-02-02T17:47:46.543Z,5.60
2023-02-02T17:50:13.025Z,5.22
2023-02-02T17:52:39.494Z,8.68
2023-02-02T17:55:14.400Z,8.18
2023-02-02T17:57:41.066Z,12.18
2023-02-02T18:00:08.102Z,14.88
2023-02-02T18:02:35.046Z,23.45
2023-02-02T18:05:02.970Z,13.27
2023-02-02T18:07:29.429Z,20.40
2023-02-02T18:09:55.889Z,13.90
2023-02-02T18:12:22.378Z,13.18
2023-02-02T18:14:49.107Z,9.23
2023-02-02T18:17:15.499Z,7.22
2023-02-02T18:19:45.015Z,4.88
2023-02-02T18:22:13.638Z,7.20
2023-02-02T18:24:40.799Z,7.70
2023-02-02T18:27:08.334Z,7.88
2023-02-02T18:29:34.843Z,6.53
2023-02-02T18:32:01.599Z,6.70
2023-02-02T18:34:32.439Z,5.30
2023-02-02T18:36:58.898Z,4.95
2023-02-02T18:39:25.600Z,4.28
2023-02-02T18:41:52.132Z,3.45
2023-02-02T18:44:18.814Z,3.70
2023-02-02T18:46:45.244Z,3.58
2023-02-02T18:49:11.714Z,3.20
2023-02-02T18:51:38.168Z,3.70
2023-02-02T18:54:04.704Z,3.63
2023-02-02T18:56:31.268Z,3.50
2023-02-02T18:58:58.479Z,3.38
2023-02-02T19:01:26.040Z,3.03
2023-02-02T19:03:54.687Z,3.40
2023-02-02T19:06:39.807Z,3.45
2023-02-02T19:09:06.598Z,3.53
2023-02-02T19:11:44.459Z,3.53
2023-02-02T19:14:16.973Z,3.15
2023-02-02T19:16:44.740Z,3.60
2023-02-02T19:19:21.879Z,3.55
2023-02-02T19:21:48.374Z,3.65
2023-02-02T19:24:14.856Z,3.60
2023-02-02T19:26:45.852Z,4.93
2023-02-02T19:29:23.613Z,3.80
2023-02-02T19:31:56.769Z,3.83
2023-02-02T19:34:23.390Z,3.97
2023-02-02T19:36:51.124Z,3.95
2023-02-02T19:39:20.933Z,3.83
2023-02-02T19:41:47.840Z,3.95
2023-02-02T19:44:19.626Z,3.95
2023-02-02T19:46:48.938Z,4.75
2023-02-02T19:49:31.725Z,4.47
2023-02-02T19:51:59.116Z,4.90
2023-02-02T19:54:36.655Z,4.93
2023-02-02T19:57:33.325Z,4.80
2023-02-02T20:00:01.593Z,3.97
2023-02-02T20:02:42.186Z,4.75
2023-02-02T20:05:11.681Z,4.90
2023-02-02T20:07:38.878Z,4.88
2023-02-02T20:10:21.772Z,4.97
2023-02-02T20:12:49.065Z,4.82
2023-02-02T20:15:34.783Z,5.47
2023-02-02T20:18:04.587Z,5.28
2023-02-02T20:20:40.849Z,5.40
2023-02-02T20:23:22.368Z,6.28
2023-02-02T20:25:48.819Z,5.40
2023-02-02T20:28:41.412Z,5.80
2023-02-02T20:31:09.923Z,4.78
2023-02-02T20:33:36.885Z,5.10
2023-02-02T20:36:50.349Z,5.15
2023-02-02T20:39:28.549Z,6.85
2023-02-02T20:41:57.135Z,5.20
2023-02-02T20:44:25.745Z,5.30
2023-02-02T20:46:52.573Z,5.63
2023-02-02T20:49:20.695Z,5.03
2023-02-02T20:51:47.306Z,5.88
2023-02-02T20:54:13.713Z,5.63
2023-02-02T20:56:41.137Z,5.72
2023-02-02T20:59:07.634Z,5.55
2023-02-02T21:01:34.203Z,5.70
2023-02-02T21:04:00.731Z,6.50
2023-02-02T21:06:28.715Z,6.25
2023-02-02T21:08:55.294Z,5.93
2023-02-02T21:11:21.818Z,6.35
2023-02-02T21:13:50.100Z,7.28
2023-02-02T21:16:16.730Z,6.68
2023-02-02T21:18:47.171Z,6.25
2023-02-02T21:21:15.981Z,6.57
2023-02-02T21:23:46.933Z,6.93
2023-02-02T21:26:14.387Z,5.40
2023-02-02T21:28:40.988Z,6.25
2023-02-02T21:31:09.370Z,6.00
2023-02-02T21:33:36.378Z,6.03
2023-02-02T21:36:36.491Z,5.53
2023-02-02T21:39:29.575Z,5.20
2023-02-02T21:42:08.031Z,5.65
2023-02-02T21:44:36.413Z,5.82
2023-02-02T21:47:02.902Z,5.65
2023-02-02T21:49:38.818Z,5.35
2023-02-02T21:52:15.455Z,5.55
2023-02-02T21:54:42.252Z,5.40
2023-02-02T21:57:21.635Z,6.00
2023-02-02T21:59:54.779Z,6.15
2023-02-02T22:02:37.038Z,5.90
2023-02-02T22:05:13.684Z,5.22
2023-02-02T22:07:41.792Z,5.65
2023-02-02T22:10:29.723Z,5.47
2023-02-02T22:12:56.208Z,5.85
2023-02-02T22:15:25.743Z,5.85
2023-02-02T22:17:52.258Z,5.43
2023-02-02T22:20:34.668Z,6.15
2023-02-02T22:23:02.418Z,6.22
2023-02-02T22:25:34.391Z,6.50
2023-02-02T22:28:27.911Z,6.25
2023-02-02T22:30:56.049Z,6.55
2023-02-02T22:33:23.249Z,7.22
2023-02-02T22:35:49.797Z,6.72
2023-02-02T22:38:21.761Z,7.30
2023-02-02T22:40:49.150Z,6.88
2023-02-02T22:43:16.571Z,6.68
2023-02-02T22:45:46.712Z,6.55
2023-02-02T22:48:14.535Z,7.15
2023-02-02T22:50:41.213Z,5.70
2023-02-02T22:53:07.677Z,5.72
2023-02-02T22:55:34.150Z,5.38
2023-02-02T22:58:00.850Z,5.88
2023-02-02T23:00:29.339Z,5.97
2023-02-02T23:02:56.656Z,5.45
2023-02-02T23:05:24.147Z,5.97
2023-02-02T23:07:50.601Z,6.13
2023-02-02T23:10:19.332Z,6.10
2023-02-02T23:12:46.241Z,5.30
2023-02-02T23:15:13.861Z,5.40
2023-02-02T23:17:40.422Z,5.75
2023-02-02T23:20:11.479Z,5.43
2023-02-02T23:22:37.974Z,5.70
2023-02-02T23:25:05.189Z,5.65
2023-02-02T23:27:31.765Z,6.05
2023-02-02T23:29:58.188Z,5.20
2023-02-02T23:32:24.658Z,5.05
2023-02-02T23:34:51.094Z,5.07
2023-02-02T23:37:17.784Z,4.70
2023-02-02T23:39:44.207Z,4.70
2023-02-02T23:42:10.763Z,4.82
2023-02-02T23:44:37.394Z,4.70
2023-02-02T23:47:04.161Z,5.25
2023-02-02T23:49:34.335Z,4.88
2023-02-02T23:52:01.019Z,4.72
2023-02-02T23:54:28.322Z,4.72
2023-02-02T23:56:55.251Z,4.25
2023-02-02T23:59:21.661Z,4.28
